Time;durP1;ratioP1;P1;durP2;ratioP2;P2;SDS_P1;SDS_P2;PMS_P1;PMS_P2;Temp;Humidity;BMP_temperature;BMP_pressure;BME280_temperature;BME280_humidity;BME280_pressure;Samples;Min_cycle;Max_cycle;Signal;HPM_P1;HPM_P2
2023/03/03 00:00:37;;;;;;;55.13;40.63;;;;;;;0.44;100.00;102334.44;5049076;28;20037;-75
2023/03/03 00:03:06;;;;;;;53.15;39.75;;;;;;;0.44;100.00;102347.38;5047409;28;20060;-75
2023/03/03 00:05:32;;;;;;;51.80;39.13;;;;;;;0.40;100.00;102343.97;5046384;28;20583;-75
2023/03/03 00:07:59;;;;;;;54.63;39.90;;;;;;;0.43;100.00;102341.34;5049349;28;20024;-75
2023/03/03 00:10:24;;;;;;;54.63;39.70;;;;;;;0.42;100.00;102341.38;5049048;28;20120;-75
2023/03/03 00:12:53;;;;;;;55.53;40.65;;;;;;;0.50;100.00;102343.00;5048172;28;20115;-75
2023/03/03 00:15:21;;;;;;;60.50;42.38;;;;;;;0.53;100.00;102340.41;5061057;28;20028;-75
2023/03/03 00:17:47;;;;;;;61.75;42.25;;;;;;;0.56;100.00;102339.50;5048695;28;20024;-75
2023/03/03 00:20:34;;;;;;;59.47;42.17;;;;;;;0.60;100.00;102334.28;5046390;28;20020;-75
2023/03/03 00:23:27;;;;;;;58.03;40.97;;;;;;;0.63;100.00;102347.19;5041109;28;20036;-75
2023/03/03 00:25:53;;;;;;;56.03;40.70;;;;;;;0.64;100.00;102345.47;5047244;28;20469;-74
2023/03/03 00:28:29;;;;;;;55.28;40.03;;;;;;;0.62;100.00;102353.25;5048929;28;20029;-74
2023/03/03 00:30:57;;;;;;;57.30;40.10;;;;;;;0.57;100.00;102347.25;5046046;28;20033;-75
2023/03/03 00:33:31;;;;;;;58.03;40.05;;;;;;;0.61;100.00;102348.09;5051742;28;20113;-75
2023/03/03 00:36:05;;;;;;;57.42;41.00;;;;;;;0.57;100.00;102347.25;5047872;28;20041;-75
2023/03/03 00:38:33;;;;;;;59.55;41.13;;;;;;;0.60;100.00;102352.41;5044120;28;20122;-75
2023/03/03 00:40:59;;;;;;;58.00;40.17;;;;;;;0.61;100.00;102354.13;5037907;28;20394;-75
2023/03/03 00:43:32;;;;;;;60.75;41.53;;;;;;;0.61;100.00;102348.94;5066698;28;20028;-75
2023/03/03 00:45:58;;;;;;;60.28;40.75;;;;;;;0.61;100.00;102348.09;5053768;28;20087;-75
2023/03/03 00:48:30;;;;;;;57.30;38.72;;;;;;;0.59;100.00;102355.88;5048037;28;20025;-75
2023/03/03 00:50:58;;;;;;;58.65;41.40;;;;;;;0.62;100.00;102355.00;5048234;28;20035;-75
2023/03/03 00:53:28;;;;;;;60.15;40.67;;;;;;;0.60;100.00;102359.31;5046762;28;20482;-76
2023/03/03 00:55:54;;;;;;;57.20;38.97;;;;;;;0.60;100.00;102354.16;5046174;28;20036;-75
2023/03/03 00:58:22;;;;;;;57.95;39.28;;;;;;;0.60;100.00;102355.00;5047614;28;20029;-75
2023/03/03 01:00:49;;;;;;;50.83;36.10;;;;;;;0.55;100.00;102355.91;5047509;28;20033;-77
2023/03/03 01:03:17;;;;;;;55.70;37.55;;;;;;;0.51;100.00;102349.06;5047863;28;20432;-74
2023/03/03 01:05:42;;;;;;;54.53;38.47;;;;;;;0.51;100.00;102344.72;5048487;28;20033;-75
2023/03/03 01:08:08;;;;;;;51.75;35.97;;;;;;;0.44;100.00;102352.56;5046362;28;20036;-75
2023/03/03 01:10:38;;;;;;;52.03;36.58;;;;;;;0.40;100.00;102359.50;5049227;28;20144;-75
2023/03/03 01:13:05;;;;;;;54.53;36.67;;;;;;;0.41;100.00;102371.56;5047252;28;20400;-75
2023/03/03 01:15:30;;;;;;;49.20;36.20;;;;;;;0.38;100.00;102361.22;5030934;28;20024;-75
2023/03/03 01:17:56;;;;;;;52.85;36.72;;;;;;;0.36;100.00;102359.50;5041267;28;20029;-75
2023/03/03 01:20:22;;;;;;;55.97;37.60;;;;;;;0.38;100.00;102366.38;5049109;28;20025;-75
2023/03/03 01:22:47;;;;;;;54.30;37.35;;;;;;;0.36;100.00;102365.53;5048397;28;20021;-75
2023/03/03 01:25:13;;;;;;;54.78;37.03;;;;;;;0.37;100.00;102369.00;5048074;28;20032;-75
2023/03/03 01:27:39;;;;;;;55.80;38.78;;;;;;;0.35;100.00;102371.59;5048921;28;20032;-75
2023/03/03 01:30:06;;;;;;;56.13;38.15;;;;;;;0.36;100.00;102373.31;5048320;28;20443;-75
2023/03/03 01:32:32;;;;;;;53.47;37.90;;;;;;;0.38;100.00;102365.53;5047864;28;20055;-75
2023/03/03 01:34:57;;;;;;;54.63;38.45;;;;;;;0.40;100.00;102364.69;5048325;28;20052;-75
2023/03/03 01:37:23;;;;;;;54.35;37.42;;;;;;;0.45;100.00;102368.09;5047280;28;20062;-75
2023/03/03 01:39:55;;;;;;;55.72;38.90;;;;;;;0.43;100.00;102367.25;5047571;28;20036;-75
2023/03/03 01:42:21;;;;;;;54.63;38.78;;;;;;;0.44;100.00;102375.88;5057351;28;20476;-76
2023/03/03 01:44:47;;;;;;;53.40;36.55;;;;;;;0.46;100.00;102384.47;5052716;28;20124;-76
2023/03/03 01:47:25;;;;;;;55.67;38.88;;;;;;;0.47;100.00;102381.00;5046941;28;20617;-76
2023/03/03 01:50:10;;;;;;;53.75;37.45;;;;;;;0.52;100.00;102380.09;5039200;28;20070;-76
2023/03/03 01:52:39;;;;;;;54.92;37.42;;;;;;;0.53;100.00;102381.81;5048286;28;20025;-76
2023/03/03 01:55:17;;;;;;;52.00;36.67;;;;;;;0.51;100.00;102375.81;5045863;28;20029;-77
2023/03/03 01:57:47;;;;;;;55.38;38.72;;;;;;;0.52;100.00;102372.34;5047498;28;20029;-76
2023/03/03 02:00:13;;;;;;;55.58;38.72;;;;;;;0.52;100.00;102380.09;5046727;28;20511;-76
2023/03/03 02:02:40;;;;;;;49.13;35.60;;;;;;;0.54;100.00;102368.00;5044087;28;20113;-78
2023/03/03 02:05:06;;;;;;;53.30;37.72;;;;;;;0.54;100.00;102367.16;5040568;28;20477;-76
2023/03/03 02:07:32;;;;;;;54.85;38.17;;;;;;;0.53;100.00;102363.69;5036551;28;20021;-76
2023/03/03 02:10:11;;;;;;;55.55;38.70;;;;;;;0.53;100.00;102366.28;5049275;28;20057;-76
2023/03/03 02:12:48;;;;;;;52.53;36.50;;;;;;;0.53;100.00;102363.69;5047690;28;20402;-76
2023/03/03 02:15:40;;;;;;;48.58;35.03;;;;;;;0.51;100.00;102368.03;5049764;28;20110;-79
2023/03/03 02:18:13;;;;;;;24.15;10.43;;;;;;;0.53;100.00;102376.66;5045015;28;20041;-75
2023/03/03 02:21:01;;;;;;;;;;;;;;;0.49;100.00;102372.38;5048978;28;20021;-75
2023/03/03 02:23:49;;;;;;;48.42;35.08;;;;;;;0.39;100.00;102375.88;5047740;28;20296;-75
2023/03/03 02:26:17;;;;;;;50.50;36.05;;;;;;;0.25;100.00;102372.53;5048858;28;20090;-75
2023/03/03 02:28:43;;;;;;;45.67;33.83;;;;;;;0.22;100.00;102386.34;5050027;28;20545;-76
2023/03/03 02:31:13;;;;;;;47.22;34.22;;;;;;;0.14;100.00;102384.69;5048492;28;20029;-75
2023/03/03 02:33:40;;;;;;;46.05;33.40;;;;;;;0.05;100.00;102382.16;5049149;28;20029;-75
2023/03/03 02:36:06;;;;;;;47.97;33.92;;;;;;;-0.02;100.00;102391.66;5051303;28;20025;-75
2023/03/03 02:38:50;;;;;;;47.38;34.00;;;;;;;-0.07;100.00;102383.91;5047842;28;20036;-75
2023/03/03 02:41:31;;;;;;;49.85;35.38;;;;;;;-0.09;100.00;102389.97;5050391;28;20025;-75
2023/03/03 02:44:04;;;;;;;50.35;35.22;;;;;;;-0.19;100.00;102384.00;5071963;28;20107;-75
2023/03/03 02:46:37;;;;;;;;;;;;;;;-0.11;100.00;102387.41;5054154;28;20363;-75
2023/03/03 02:49:05;;;;;;;51.65;36.22;;;;;;;-0.20;100.00;102386.59;5051138;28;19913;-75
2023/03/03 02:51:30;;;;;;;54.13;36.78;;;;;;;-0.25;100.00;102386.63;5051176;28;20029;-75
2023/03/03 02:53:56;;;;;;;53.35;36.45;;;;;;;-0.26;100.00;102391.78;5045429;28;20123;-75
2023/03/03 02:56:21;;;;;;;55.70;36.70;;;;;;;-0.25;100.00;102381.44;5050085;28;20060;-76
2023/03/03 02:58:47;;;;;;;51.67;36.40;;;;;;;-0.25;100.00;102384.03;5051289;28;20036;-75
2023/03/03 03:01:12;;;;;;;55.45;37.28;;;;;;;-0.26;100.00;102381.44;5050226;28;20392;-75
2023/03/03 03:03:38;;;;;;;54.00;38.15;;;;;;;-0.24;100.00;102390.06;5051715;28;20489;-76
2023/03/03 03:06:03;;;;;;;55.13;35.92;;;;;;;-0.25;100.00;102388.34;5050121;28;20052;-77
2023/03/03 03:08:29;;;;;;;53.88;36.28;;;;;;;-0.24;100.00;102385.75;5049073;28;20090;-76
2023/03/03 03:10:55;;;;;;;55.38;37.50;;;;;;;-0.22;100.00;102388.31;5048701;28;20439;-76
2023/03/03 03:13:22;;;;;;;52.88;36.45;;;;;;;-0.21;100.00;102390.91;5044652;28;20029;-77
2023/03/03 03:15:48;;;;;;;50.92;34.90;;;;;;;-0.25;100.00;102391.78;5049768;28;20385;-76
2023/03/03 03:18:14;;;;;;;51.30;35.72;;;;;;;-0.24;100.00;102393.50;5048574;28;20028;-77
2023/03/03 03:20:40;;;;;;;51.38;36.65;;;;;;;-0.18;100.00;102382.28;5046859;28;20366;-77
2023/03/03 03:23:06;;;;;;;50.55;35.85;;;;;;;-0.14;100.00;102396.91;5047098;28;20029;-77
2023/03/03 03:25:32;;;;;;;51.45;36.25;;;;;;;-0.11;100.00;102396.88;5047351;28;20366;-77
2023/03/03 03:27:57;;;;;;;49.10;34.90;;;;;;;-0.10;100.00;102388.25;5047360;28;20477;-77
2023/03/03 03:30:23;;;;;;;50.58;35.65;;;;;;;-0.13;100.00;102396.88;5048743;28;20024;-76
2023/03/03 03:32:48;;;;;;;47.97;34.60;;;;;;;-0.14;100.00;102395.19;5048511;28;20108;-77
2023/03/03 03:35:16;;;;;;;51.65;35.45;;;;;;;-0.13;100.00;102394.31;5048352;28;20026;-77
2023/03/03 03:37:41;;;;;;;48.95;35.03;;;;;;;-0.13;100.00;102391.72;5047782;28;20268;-77
2023/03/03 03:40:07;;;;;;;48.92;34.75;;;;;;;-0.13;100.00;102394.31;5050179;28;20529;-77
2023/03/03 03:42:32;;;;;;;49.90;35.33;;;;;;;-0.15;100.00;102396.03;5058118;28;20408;-77
2023/03/03 03:44:58;;;;;;;50.33;35.42;;;;;;;-0.13;100.00;102404.66;5035825;28;20030;-77
2023/03/03 03:47:23;;;;;;;51.75;35.92;;;;;;;-0.11;100.00;102404.66;5044592;28;20048;-79
2023/03/03 03:49:48;;;;;;;50.88;34.85;;;;;;;-0.13;100.00;102396.88;5049779;28;20056;-77
2023/03/03 03:52:14;;;;;;;50.15;34.53;;;;;;;-0.08;100.00;102408.06;5048251;28;20021;-77
2023/03/03 03:54:39;;;;;;;46.28;32.72;;;;;;;-0.11;100.00;102413.25;5048752;28;20021;-77
2023/03/03 03:57:05;;;;;;;45.70;31.48;;;;;;;-0.16;100.00;102407.25;5046479;28;20035;-75
2023/03/03 03:59:30;;;;;;;46.33;31.08;;;;;;;-0.17;100.00;102407.25;5047461;28;20056;-76
2023/03/03 04:01:55;;;;;;;44.55;30.45;;;;;;;-0.19;100.00;102404.69;5033878;28;20032;-76
2023/03/03 04:04:21;;;;;;;45.25;31.95;;;;;;;-0.26;100.00;102403.00;5029083;28;20033;-76
2023/03/03 04:06:46;;;;;;;46.30;31.98;;;;;;;-0.29;100.00;102408.19;5029339;28;20030;-76
2023/03/03 04:09:12;;;;;;;46.67;32.78;;;;;;;-0.30;100.00;102409.06;5029396;28;20042;-77
2023/03/03 04:11:37;;;;;;;47.25;32.78;;;;;;;-0.32;100.00;102413.38;5040776;28;20033;-76
2023/03/03 04:14:03;;;;;;;45.13;31.73;;;;;;;-0.33;100.00;102422.00;5049344;28;20021;-76
2023/03/03 04:16:28;;;;;;;43.75;31.20;;;;;;;-0.36;100.00;102416.84;5047495;28;20366;-76
2023/03/03 04:18:54;;;;;;;45.42;31.45;;;;;;;-0.36;100.00;102416.84;5033459;28;20060;-76
2023/03/03 04:21:20;;;;;;;45.47;32.35;;;;;;;-0.40;100.00;102418.56;5044778;28;20029;-76
2023/03/03 04:23:45;;;;;;;44.60;32.13;;;;;;;-0.39;100.00;102417.72;5047219;28;20021;-75
2023/03/03 04:26:10;;;;;;;43.30;31.20;;;;;;;-0.39;100.00;102422.03;5047717;28;20169;-75
2023/03/03 04:28:36;;;;;;;45.10;32.42;;;;;;;-0.36;100.00;102417.69;5047315;28;20025;-75
2023/03/03 04:31:02;;;;;;;45.03;32.50;;;;;;;-0.34;100.00;102420.28;5047656;28;20019;-75
2023/03/03 04:33:27;;;;;;;48.00;32.03;;;;;;;-0.31;100.00;102420.25;5045821;28;20051;-75
2023/03/03 04:35:52;;;;;;;47.88;32.85;;;;;;;-0.33;100.00;102422.84;5047903;28;20028;-77
2023/03/03 04:38:18;;;;;;;45.10;31.02;;;;;;;-0.28;100.00;102422.84;5048989;28;20032;-75
2023/03/03 04:40:44;;;;;;;42.88;31.42;;;;;;;-0.28;100.00;102427.16;5047636;28;20052;-75
2023/03/03 04:43:10;;;;;;;42.03;30.70;;;;;;;-0.26;100.00;102422.81;5046924;28;20027;-78
2023/03/03 04:45:36;;;;;;;44.30;31.70;;;;;;;-0.25;100.00;102425.41;5045013;28;20029;-75
2023/03/03 04:48:01;;;;;;;45.05;31.80;;;;;;;-0.24;100.00;102421.94;5047403;28;20083;-75
2023/03/03 04:50:26;;;;;;;44.42;32.05;;;;;;;-0.22;100.00;102420.22;5045449;28;20029;-75
2023/03/03 04:52:52;;;;;;;43.65;31.80;;;;;;;-0.20;100.00;102421.06;5048194;28;20067;-75
2023/03/03 04:55:17;;;;;;;45.42;31.92;;;;;;;-0.18;100.00;102421.91;5048931;28;20021;-75
2023/03/03 04:57:43;;;;;;;43.42;30.90;;;;;;;-0.16;100.00;102429.69;5047453;28;20056;-75
2023/03/03 05:00:12;;;;;;;40.72;29.52;;;;;;;-0.18;100.00;102427.09;5045820;28;20021;-75
2023/03/03 05:02:38;;;;;;;40.35;29.10;;;;;;;-0.17;100.00;102428.81;5063796;28;20032;-75
2023/03/03 05:05:04;;;;;;;43.08;29.85;;;;;;;-0.16;100.00;102422.78;5047111;28;20036;-75
2023/03/03 05:07:29;;;;;;;42.00;29.40;;;;;;;-0.15;100.00;102421.91;5045215;28;20021;-75
2023/03/03 05:09:55;;;;;;;40.38;28.67;;;;;;;-0.13;100.00;102430.53;5047551;28;20505;-75
2023/03/03 05:12:20;;;;;;;44.35;30.02;;;;;;;-0.12;100.00;102427.06;5047258;28;20478;-75
2023/03/03 05:14:45;;;;;;;41.28;29.33;;;;;;;-0.08;100.00;102433.94;5046925;28;20021;-75
2023/03/03 05:17:11;;;;;;;41.53;28.98;;;;;;;-0.09;100.00;102424.47;5047517;28;20055;-75
2023/03/03 05:19:36;;;;;;;40.95;29.17;;;;;;;-0.06;100.00;102437.38;5047173;28;20021;-76
2023/03/03 05:22:01;;;;;;;42.25;29.45;;;;;;;-0.08;100.00;102433.94;5049230;28;20473;-76
2023/03/03 05:24:27;;;;;;;40.30;28.60;;;;;;;-0.07;100.00;102433.06;5043105;28;20112;-76
2023/03/03 05:26:52;;;;;;;43.70;29.98;;;;;;;-0.05;100.00;102443.41;5047573;28;20020;-76
2023/03/03 05:29:18;;;;;;;44.75;30.27;;;;;;;-0.06;100.00;102436.53;5049407;28;20021;-76
2023/03/03 05:31:43;;;;;;;44.05;30.70;;;;;;;-0.03;100.00;102434.78;5049407;28;20033;-76
2023/03/03 05:34:08;;;;;;;44.45;31.00;;;;;;;-0.03;100.00;102437.38;5063860;28;20077;-79
2023/03/03 05:36:34;;;;;;;44.20;30.95;;;;;;;-0.01;100.00;102437.34;5067629;28;20044;-76
2023/03/03 05:38:59;;;;;;;45.22;31.20;;;;;;;0.01;100.00;102433.06;5057628;28;20087;-76
2023/03/03 05:41:25;;;;;;;43.92;31.05;;;;;;;0.02;100.00;102437.38;5047875;28;20036;-76
2023/03/03 05:43:50;;;;;;;43.88;31.00;;;;;;;0.03;100.00;102435.66;5088736;28;20028;-76
2023/03/03 05:46:15;;;;;;;44.15;29.98;;;;;;;0.06;100.00;102433.91;5053972;28;20431;-76
2023/03/03 05:48:41;;;;;;;42.40;28.50;;;;;;;0.07;100.00;102438.22;5052195;28;20036;-76
2023/03/03 05:51:06;;;;;;;42.03;29.33;;;;;;;0.10;100.00;102445.94;5050773;28;20583;-76
2023/03/03 05:53:31;;;;;;;41.17;29.65;;;;;;;0.12;100.00;102451.97;5051729;28;20051;-76
2023/03/03 05:55:57;;;;;;;41.03;29.27;;;;;;;0.16;100.00;102442.47;5046833;28;20108;-76
2023/03/03 05:58:22;;;;;;;42.60;28.67;;;;;;;0.17;100.00;102441.59;5044620;28;20075;-76
2023/03/03 06:00:48;;;;;;;40.80;28.52;;;;;;;0.20;100.00;102450.19;5046615;28;20070;-76
2023/03/03 06:03:13;;;;;;;40.67;28.70;;;;;;;0.23;100.00;102438.97;5048799;28;20465;-77
2023/03/03 06:05:38;;;;;;;41.72;28.52;;;;;;;0.24;100.00;102440.69;5049411;28;20025;-76
2023/03/03 06:08:04;;;;;;;41.20;27.83;;;;;;;0.25;100.00;102443.28;5047912;28;20024;-76
2023/03/03 06:10:29;;;;;;;42.78;27.98;;;;;;;0.28;100.00;102444.97;5050890;28;20053;-76
2023/03/03 06:12:55;;;;;;;39.17;28.88;;;;;;;0.30;100.00;102445.84;5050529;28;20101;-76
2023/03/03 06:15:23;;;;;;;40.03;28.05;;;;;;;0.33;100.00;102451.00;5033590;28;20386;-76
2023/03/03 06:17:48;;;;;;;41.38;28.08;;;;;;;0.35;100.00;102449.25;5030026;28;20029;-76
2023/03/03 06:20:14;;;;;;;40.90;27.95;;;;;;;0.36;100.00;102457.88;5031309;28;20500;-76
2023/03/03 06:22:39;;;;;;;39.45;26.67;;;;;;;0.38;100.00;102457.00;5031688;28;20033;-77
2023/03/03 06:25:05;;;;;;;41.45;29.15;;;;;;;0.41;100.00;102457.00;5043729;28;20029;-76
2023/03/03 06:27:30;;;;;;;45.00;29.08;;;;;;;0.41;100.00;102459.59;5050457;28;20029;-76
2023/03/03 06:29:55;;;;;;;40.35;27.80;;;;;;;0.44;100.00;102462.16;5049300;28;20035;-76
2023/03/03 06:32:21;;;;;;;41.53;28.42;;;;;;;0.48;100.00;102463.00;5060923;28;20029;-75
2023/03/03 06:34:46;;;;;;;41.13;28.30;;;;;;;0.48;100.00;102471.63;5086635;28;20032;-75
2023/03/03 06:37:12;;;;;;;41.00;27.98;;;;;;;0.53;100.00;102471.59;5071372;28;20028;-76
2023/03/03 06:39:37;;;;;;;40.75;27.40;;;;;;;0.54;100.00;102478.50;5070450;28;20400;-75
2023/03/03 06:42:02;;;;;;;44.00;28.52;;;;;;;0.56;100.00;102485.38;5059727;28;20024;-76
2023/03/03 06:44:28;;;;;;;39.95;27.75;;;;;;;0.61;100.00;102486.22;5071004;28;20028;-76
2023/03/03 06:46:56;;;;;;;43.92;29.05;;;;;;;0.63;100.00;102497.41;5067153;28;20035;-75
2023/03/03 06:49:22;;;;;;;47.15;28.92;;;;;;;0.65;100.00;102493.97;5045625;28;20077;-75
2023/03/03 06:51:47;;;;;;;46.20;29.17;;;;;;;0.67;100.00;102487.91;5049805;28;20112;-76
2023/03/03 06:54:22;;;;;;;44.70;30.90;;;;;;;0.68;100.00;102499.97;5049996;28;20452;-76
2023/03/03 06:56:51;;;;;;;44.38;29.67;;;;;;;0.72;100.00;102501.66;5051977;28;20028;-79
2023/03/03 06:59:19;;;;;;;41.85;28.77;;;;;;;0.73;100.00;102502.53;5047336;28;20108;-76
2023/03/03 07:01:47;;;;;;;44.65;30.30;;;;;;;0.74;100.00;102512.03;5047562;28;20484;-76
2023/03/03 07:04:32;;;;;;;43.60;29.02;;;;;;;0.78;100.00;102509.41;5049094;28;20037;-75
2023/03/03 07:07:04;;;;;;;43.97;28.25;;;;;;;0.78;100.00;102513.72;5049718;28;20049;-74
2023/03/03 07:09:30;;;;;;;39.08;27.08;;;;;;;0.82;100.00;102510.28;5049515;28;20048;-75
2023/03/03 07:12:01;;;;;;;43.85;28.60;;;;;;;0.87;100.00;102521.47;5047214;28;20024;-75
2023/03/03 07:14:29;;;;;;;45.67;30.65;;;;;;;0.86;100.00;102512.81;5049213;28;20127;-78
2023/03/03 07:17:03;;;;;;;42.78;29.95;;;;;;;0.89;100.00;102507.63;5049325;28;20048;-75
2023/03/03 07:19:33;;;;;;;44.35;30.52;;;;;;;0.93;100.00;102514.50;5048182;28;20060;-78
2023/03/03 07:22:13;;;;;;;44.22;29.65;;;;;;;0.96;100.00;102513.63;5048664;28;20500;-79
2023/03/03 07:24:40;;;;;;;46.28;31.48;;;;;;;1.00;100.00;102517.91;5048879;28;20028;-76
2023/03/03 07:27:06;;;;;;;45.70;30.83;;;;;;;0.99;100.00;102511.00;5047785;28;20032;-76
2023/03/03 07:29:33;;;;;;;46.83;31.10;;;;;;;1.03;100.00;102504.06;5047562;28;20031;-76
2023/03/03 07:32:00;;;;;;;46.10;31.13;;;;;;;0.99;100.00;102511.00;5049397;28;20110;-76
2023/03/03 07:34:35;;;;;;;45.42;30.23;;;;;;;1.04;100.00;102524.78;5049849;28;20036;-76
2023/03/03 07:37:08;;;;;;;44.67;30.23;;;;;;;1.04;100.00;102518.72;5049746;28;20385;-76
2023/03/03 07:39:39;;;;;;;42.85;28.67;;;;;;;1.03;100.00;102523.06;5046505;28;20051;-76
2023/03/03 07:42:08;;;;;;;42.65;29.73;;;;;;;1.06;100.00;102524.75;5051086;28;20601;-78
2023/03/03 07:44:36;;;;;;;44.72;29.73;;;;;;;1.08;100.00;102535.97;5048648;28;20489;-76
2023/03/03 07:47:17;;;;;;;40.58;28.92;;;;;;;1.10;100.00;102529.91;5049840;28;20053;-79
2023/03/03 07:49:42;;;;;;;40.95;27.98;;;;;;;1.10;100.00;102535.09;5046333;28;20116;-77
2023/03/03 07:52:30;;;;;;;42.33;28.60;;;;;;;1.16;100.00;102536.78;5048128;28;20021;-77
2023/03/03 07:54:59;;;;;;;44.95;28.65;;;;;;;1.17;100.00;102541.94;5046737;28;20078;-76
2023/03/03 07:57:30;;;;;;;43.83;29.73;;;;;;;1.19;100.00;102544.53;5049364;28;20029;-76
2023/03/03 08:00:27;;;;;;;45.85;29.67;;;;;;;1.25;100.00;102545.34;5047259;28;20530;-76
2023/03/03 08:03:04;;;;;;;41.80;27.42;;;;;;;1.22;100.00;102540.19;5044738;28;20045;-76
2023/03/03 08:05:29;;;;;;;41.05;27.70;;;;;;;1.25;100.00;102544.50;5047424;28;20052;-76
2023/03/03 08:08:15;;;;;;;44.80;26.90;;;;;;;1.27;100.00;102553.13;5049090;28;20094;-76
2023/03/03 08:10:46;;;;;;;40.67;27.13;;;;;;;1.24;100.00;102548.81;5048357;28;20466;-76
2023/03/03 08:13:21;;;;;;;41.08;26.83;;;;;;;1.27;100.00;102557.44;5049046;28;20472;-75
2023/03/03 08:16:03;;;;;;;42.47;26.63;;;;;;;1.32;100.00;102561.72;5047808;28;20071;-79
2023/03/03 08:18:49;;;;;;;38.07;25.20;;;;;;;1.34;100.00;102554.78;5034966;28;20025;-78
2023/03/03 08:21:21;;;;;;;41.47;25.33;;;;;;;1.36;100.00;102559.97;5048134;28;20025;-76
2023/03/03 08:23:50;;;;;;;36.88;24.60;;;;;;;1.40;100.00;102562.50;5048400;28;20025;-76
2023/03/03 08:26:17;;;;;;;39.58;25.42;;;;;;;1.42;100.00;102568.53;5046633;28;20574;-76
2023/03/03 08:28:43;;;;;;;36.33;23.25;;;;;;;1.45;100.00;102567.66;5049216;28;20049;-76
2023/03/03 08:31:08;;;;;;;35.20;23.88;;;;;;;1.46;100.00;102569.38;5047883;28;20480;-76
2023/03/03 08:33:33;;;;;;;34.88;23.77;;;;;;;1.50;100.00;102568.47;5056714;28;20024;-76
2023/03/03 08:35:59;;;;;;;35.03;23.38;;;;;;;1.53;100.00;102571.91;5048393;28;20024;-76
2023/03/03 08:38:24;;;;;;;33.95;22.70;;;;;;;1.59;100.00;102565.78;5063350;28;20112;-76
2023/03/03 08:40:50;;;;;;;32.75;23.30;;;;;;;1.71;100.00;102565.69;5046005;28;20447;-78
2023/03/03 08:43:20;;;;;;;34.75;24.50;;;;;;;1.77;100.00;102562.19;5049418;28;20028;-76
2023/03/03 08:45:48;;;;;;;35.75;24.23;;;;;;;1.81;100.00;102577.69;5044213;28;20052;-78
2023/03/03 08:48:14;;;;;;;36.25;24.08;;;;;;;1.91;100.00;102569.81;5047454;28;20021;-75
2023/03/03 08:50:40;;;;;;;36.28;25.17;;;;;;;1.95;100.00;102574.09;5047037;28;20025;-77
2023/03/03 08:53:05;;;;;;;42.08;27.42;;;;;;;1.94;100.00;102575.84;5051670;28;20032;-77
2023/03/03 08:55:31;;;;;;;40.45;26.08;;;;;;;1.91;100.00;102588.84;5047952;28;20036;-77
2023/03/03 08:57:57;;;;;;;38.38;25.88;;;;;;;1.93;100.00;102588.81;5054375;28;20098;-77
2023/03/03 09:00:23;;;;;;;40.17;25.83;;;;;;;1.91;100.00;102600.97;5049506;28;20108;-77
2023/03/03 09:02:50;;;;;;;38.10;25.02;;;;;;;1.83;100.00;102601.03;5055850;28;20028;-77
2023/03/03 09:05:17;;;;;;;40.25;26.77;;;;;;;1.86;100.00;102601.88;5060740;28;20036;-77
2023/03/03 09:07:44;;;;;;;38.55;25.63;;;;;;;1.89;100.00;102595.78;5067905;28;20024;-78
2023/03/03 09:10:13;;;;;;;37.50;24.58;;;;;;;1.90;100.00;102602.69;5068840;28;20051;-78
2023/03/03 09:12:47;;;;;;;35.60;24.67;;;;;;;1.89;100.00;102596.66;5047248;28;20033;-78
2023/03/03 09:15:27;;;;;;;34.47;23.35;;;;;;;1.92;100.00;102594.91;5054008;28;20017;-78
2023/03/03 09:17:53;;;;;;;33.63;23.02;;;;;;;1.95;100.00;102602.66;5060381;28;20493;-77
2023/03/03 09:20:22;;;;;;;34.30;24.00;;;;;;;1.95;100.00;102602.66;5055613;28;20107;-78
2023/03/03 09:22:49;;;;;;;34.22;23.20;;;;;;;2.00;100.00;102598.25;5063410;28;20028;-76
2023/03/03 09:25:36;;;;;;;35.17;22.20;;;;;;;2.03;100.00;102600.84;5065596;28;20081;-76
2023/03/03 09:28:02;;;;;;;32.33;21.58;;;;;;;2.06;100.00;102600.81;5071757;28;20021;-77
2023/03/03 09:30:33;;;;;;;29.10;20.23;;;;;;;2.12;100.00;102598.16;5067615;28;20024;-78
2023/03/03 09:32:59;;;;;;;28.63;20.83;;;;;;;2.16;100.00;102605.03;5055264;28;20036;-77
2023/03/03 09:35:37;;;;;;;30.85;22.65;;;;;;;2.27;100.00;102608.38;5066411;28;20537;-77
2023/03/03 09:38:22;;;;;;;33.25;23.42;;;;;;;2.44;99.51;102606.47;5066970;28;20485;-78
2023/03/03 09:41:02;;;;;;;28.33;20.25;;;;;;;2.51;98.98;102609.84;5066265;28;20116;-77
2023/03/03 09:43:41;;;;;;;29.00;19.40;;;;;;;2.55;99.03;102610.66;5069289;28;20028;-78
2023/03/03 09:46:23;;;;;;;28.80;19.48;;;;;;;2.55;99.15;102608.06;5062026;28;20040;-78
2023/03/03 09:49:07;;;;;;;27.48;19.13;;;;;;;2.58;99.15;102610.63;5063292;28;20038;-78
2023/03/03 09:52:14;;;;;;;23.58;16.60;;;;;;;2.59;97.29;102612.34;5054059;28;20709;-78
2023/03/03 09:54:56;;;;;;;23.00;17.02;;;;;;;2.59;96.97;102615.78;5032963;28;20781;-78
2023/03/03 09:57:45;;;;;;;22.58;16.80;;;;;;;2.62;96.96;102620.09;5058824;28;20070;-78
2023/03/03 10:00:32;;;;;;;28.77;17.33;;;;;;;2.54;97.06;102615.00;5056880;28;20041;-78
2023/03/03 10:03:01;;;;;;;23.88;16.75;;;;;;;2.54;97.04;102625.38;5055753;28;20471;-78
2023/03/03 10:05:26;;;;;;;20.83;15.50;;;;;;;2.62;96.95;102620.09;5061972;28;20039;-78
2023/03/03 10:07:58;;;;;;;21.52;15.23;;;;;;;2.70;96.18;102628.63;5046484;28;20028;-78
2023/03/03 10:10:47;;;;;;;23.80;15.27;;;;;;;2.75;95.91;102624.25;5068447;28;20098;-77
2023/03/03 10:13:30;;;;;;;18.90;14.45;;;;;;;2.78;95.60;102627.66;5040885;28;20076;-78
2023/03/03 10:16:31;;;;;;;20.58;15.00;;;;;;;2.82;95.23;102628.50;5051253;28;20028;-78
2023/03/03 10:19:01;;;;;;;19.17;14.48;;;;;;;2.95;95.77;102624.84;5021729;28;20036;-78
2023/03/03 10:21:33;;;;;;;19.42;13.82;;;;;;;3.06;94.68;102628.16;5059059;28;20087;-78
2023/03/03 10:24:10;;;;;;;20.52;14.82;;;;;;;3.13;94.97;102623.72;5045730;28;20052;-78
2023/03/03 10:26:56;;;;;;;19.83;14.48;;;;;;;3.18;94.84;102626.25;5058694;28;20051;-78
2023/03/03 10:29:43;;;;;;;18.10;14.02;;;;;;;3.20;95.20;102629.69;5055762;28;20013;-76
2023/03/03 10:32:29;;;;;;;21.10;14.18;;;;;;;3.23;94.79;102624.47;5049739;28;20083;-77
2023/03/03 10:35:17;;;;;;;19.88;13.95;;;;;;;3.26;94.32;102624.41;5056702;28;20506;-77
2023/03/03 10:37:43;;;;;;;19.02;14.23;;;;;;;3.24;93.84;102620.97;5048082;28;20504;-77
2023/03/03 10:40:09;;;;;;;19.23;14.18;;;;;;;3.30;94.77;102623.50;5054262;28;20021;-77
2023/03/03 10:43:13;;;;;;;17.98;13.32;;;;;;;3.38;94.02;102624.22;5060809;28;20036;-77
2023/03/03 10:46:18;;;;;;;18.10;13.57;;;;;;;3.44;92.56;102624.13;5070845;28;20037;-77
2023/03/03 10:48:43;;;;;;;20.80;14.23;;;;;;;3.35;92.29;102621.66;5061903;28;20090;-77
2023/03/03 10:51:57;;;;;;;19.65;14.02;;;;;;;3.46;93.37;102622.34;5069163;28;20024;-77
2023/03/03 10:54:31;;;;;;;20.63;14.60;;;;;;;3.62;92.99;102620.38;5058002;28;20115;-77
2023/03/03 10:57:10;;;;;;;18.50;13.98;;;;;;;3.84;92.22;102621.72;5063533;28;20491;-77
2023/03/03 11:00:13;;;;;;;17.27;13.38;;;;;;;3.98;90.74;102618.84;5068205;28;20478;-77
2023/03/03 11:02:57;;;;;;;19.15;14.35;;;;;;;4.03;90.26;102622.28;5066752;28;20028;-77
2023/03/03 11:05:41;;;;;;;17.45;13.13;;;;;;;4.21;90.14;102615.84;5069169;28;20032;-77
2023/03/03 11:08:24;;;;;;;19.42;14.25;;;;;;;4.29;89.61;102614.81;5070194;28;20492;-77
2023/03/03 11:11:06;;;;;;;31.63;22.40;;;;;;;4.27;88.47;102608.75;5016994;28;1254376;-77
2023/03/03 11:13:35;;;;;;;26.23;18.75;;;;;;;4.30;88.29;102613.06;5071247;28;20102;-76
2023/03/03 11:16:08;;;;;;;30.70;23.65;;;;;;;4.42;87.95;102610.22;5070686;28;20048;-77
2023/03/03 11:18:54;;;;;;;19.48;14.23;;;;;;;4.60;87.54;102617.66;5070150;28;20554;-77
2023/03/03 11:21:31;;;;;;;17.65;13.48;;;;;;;4.69;86.75;102607.03;5070838;28;20038;-77
2023/03/03 11:24:15;;;;;;;21.02;14.18;;;;;;;4.72;87.09;102611.31;5069251;28;20434;-77